createdAt,value
2018-04-27T00:00:11.843Z,9.32
2018-04-27T00:01:11.863Z,9.38
2018-04-27T00:02:11.917Z,9.32
2018-04-27T00:03:11.956Z,9.34
2018-04-27T00:04:12.004Z,9.34
2018-04-27T00:05:12.111Z,9.25
2018-04-27T00:06:12.099Z,9.28
2018-04-27T00:07:12.168Z,9.38
2018-04-27T00:08:12.190Z,9.32
2018-04-27T00:09:12.238Z,9.35
2018-04-27T00:10:12.282Z,9.32
2018-04-27T00:11:12.366Z,9.34
2018-04-27T00:12:12.375Z,9.34
2018-04-27T00:13:12.425Z,9.34
2018-04-27T00:14:12.472Z,9.32
2018-04-27T00:15:12.518Z,9.23
2018-04-27T00:16:12.590Z,9.28
2018-04-27T00:17:12.609Z,9.30
2018-04-27T00:18:12.655Z,9.24
2018-04-27T00:19:12.701Z,9.18
2018-04-27T00:20:12.750Z,9.27
2018-04-27T00:21:12.824Z,9.20
2018-04-27T00:22:12.843Z,9.12
2018-04-27T00:23:12.886Z,9.16
2018-04-27T00:24:12.935Z,9.16
2018-04-27T00:25:12.982Z,9.20
2018-04-27T00:26:13.065Z,9.21
2018-04-27T00:27:13.071Z,9.20
2018-04-27T00:28:13.122Z,9.16
2018-04-27T00:29:13.166Z,9.24
2018-04-27T00:30:13.214Z,9.15
2018-04-27T00:31:13.289Z,8.99
2018-04-27T00:32:13.304Z,9.04
2018-04-27T00:33:13.350Z,9.05
2018-04-27T00:34:13.402Z,9.12
2018-04-27T00:35:13.443Z,8.99
2018-04-27T00:36:13.515Z,8.99
2018-04-27T00:37:13.539Z,8.96
2018-04-27T00:38:13.583Z,8.94
2018-04-27T00:39:13.631Z,8.91
2018-04-27T00:40:13.697Z,8.84
2018-04-27T00:41:13.723Z,8.90
2018-04-27T00:42:13.769Z,8.84
2018-04-27T00:43:13.819Z,8.81
2018-04-27T00:44:13.860Z,8.88
2018-04-27T00:45:13.935Z,8.84
2018-04-27T00:46:13.953Z,8.83
2018-04-27T00:47:14.021Z,8.87
2018-04-27T00:48:14.045Z,8.81
2018-04-27T00:49:14.091Z,8.84
2018-04-27T00:50:14.144Z,8.99
2018-04-27T00:51:14.227Z,8.86
2018-04-27T00:52:14.230Z,8.84
2018-04-27T00:53:14.279Z,8.84
2018-04-27T00:54:14.327Z,8.83
2018-04-27T00:55:14.367Z,8.88
2018-04-27T00:56:14.445Z,8.84
2018-04-27T00:57:14.461Z,8.79
2018-04-27T00:58:14.507Z,8.88
2018-04-27T00:59:14.552Z,8.84
2018-04-27T01:00:14.599Z,8.84
2018-04-27T01:01:14.674Z,8.86
2018-04-27T01:02:14.694Z,8.79
2018-04-27T01:03:14.746Z,8.76
2018-04-27T01:04:14.785Z,8.86
2018-04-27T01:05:14.834Z,8.87
2018-04-27T01:06:14.908Z,8.81
2018-04-27T01:07:14.924Z,8.83
2018-04-27T01:08:14.969Z,8.87
2018-04-27T01:09:15.047Z,8.86
2018-04-27T01:10:15.065Z,8.83
2018-04-27T01:11:15.113Z,8.83
2018-04-27T01:12:15.156Z,8.90
2018-04-27T01:13:15.204Z,8.81
2018-04-27T01:14:15.361Z,8.84
2018-04-27T01:15:15.296Z,8.81
2018-04-27T01:16:15.341Z,8.83
2018-04-27T01:17:15.409Z,8.87
2018-04-27T01:18:15.432Z,8.87
2018-04-27T01:19:15.508Z,8.79
2018-04-27T01:20:15.524Z,8.69
2018-04-27T01:21:15.569Z,8.81
2018-04-27T01:22:15.615Z,8.79
2018-04-27T01:23:15.662Z,8.72
2018-04-27T01:24:15.740Z,8.69
2018-04-27T01:25:15.753Z,8.69
2018-04-27T01:26:15.799Z,8.71
2018-04-27T01:27:15.847Z,8.68
2018-04-27T01:28:15.892Z,8.66
2018-04-27T01:29:15.963Z,8.58
2018-04-27T01:30:15.982Z,8.65
2018-04-27T01:31:16.028Z,8.65
2018-04-27T01:32:16.076Z,8.71
2018-04-27T01:33:16.122Z,8.63
2018-04-27T01:34:16.204Z,8.72
2018-04-27T01:35:16.212Z,8.73
2018-04-27T01:36:16.262Z,8.76
2018-04-27T01:37:16.304Z,8.71
2018-04-27T01:38:16.350Z,8.79
2018-04-27T01:39:16.424Z,8.87
2018-04-27T01:40:16.462Z,8.88
2018-04-27T01:41:16.490Z,8.86
2018-04-27T01:42:16.540Z,8.90
2018-04-27T01:43:16.581Z,8.86
2018-04-27T01:44:16.660Z,8.84
2018-04-27T01:45:16.672Z,8.88
2018-04-27T01:46:16.720Z,8.86
2018-04-27T01:47:16.767Z,8.86
2018-04-27T01:48:16.816Z,8.87
2018-04-27T01:49:16.880Z,8.88
2018-04-27T01:50:16.937Z,8.86
2018-04-27T01:51:17.028Z,8.86
2018-04-27T01:52:17.054Z,8.81
2018-04-27T01:53:17.047Z,8.86
2018-04-27T01:54:17.088Z,8.88
2018-04-27T01:55:17.162Z,8.81
2018-04-27T01:56:17.180Z,8.81
2018-04-27T01:57:17.227Z,8.78
2018-04-27T01:58:17.272Z,8.76
2018-04-27T01:59:17.319Z,8.71
2018-04-27T02:00:17.394Z,8.78
2018-04-27T02:01:17.415Z,8.73
2018-04-27T02:02:17.456Z,8.78
2018-04-27T02:03:17.507Z,8.65
2018-04-27T02:04:17.547Z,8.75
2018-04-27T02:05:17.617Z,8.75
2018-04-27T02:06:17.663Z,8.73
2018-04-27T02:07:17.689Z,8.69
2018-04-27T02:08:17.739Z,8.73
2018-04-27T02:09:17.781Z,8.71
2018-04-27T02:10:17.825Z,8.76
2018-04-27T02:11:17.899Z,8.72
2018-04-27T02:12:17.915Z,8.72
2018-04-27T02:13:18.747Z,8.73
2018-04-27T02:14:18.008Z,8.71
2018-04-27T02:15:18.056Z,8.73
2018-04-27T02:16:18.139Z,8.79
2018-04-27T02:17:18.148Z,8.63
2018-04-27T02:18:18.199Z,8.71
2018-04-27T02:19:18.289Z,8.62
2018-04-27T02:20:18.284Z,8.69
2018-04-27T02:21:18.354Z,8.69
2018-04-27T02:22:18.402Z,8.62
2018-04-27T02:23:18.424Z,8.62
2018-04-27T02:24:18.468Z,8.68
2018-04-27T02:25:18.518Z,8.65
2018-04-27T02:26:18.567Z,8.55
2018-04-27T02:27:18.634Z,8.51
2018-04-27T02:28:18.653Z,8.50
2018-04-27T02:29:18.707Z,8.48
2018-04-27T02:30:18.746Z,8.48
2018-04-27T02:31:18.789Z,8.51
2018-04-27T02:32:18.860Z,8.45
2018-04-27T02:33:18.889Z,8.53
2018-04-27T02:34:18.964Z,8.53
2018-04-27T02:35:18.983Z,8.53
2018-04-27T02:36:19.020Z,8.54
2018-04-27T02:37:19.094Z,8.54
2018-04-27T02:38:19.134Z,8.54
2018-04-27T02:39:19.157Z,8.54
2018-04-27T02:40:19.204Z,8.54
2018-04-27T02:41:19.247Z,8.57
2018-04-27T02:42:19.299Z,8.57
2018-04-27T02:43:19.364Z,8.60
2018-04-27T02:44:19.388Z,8.65
2018-04-27T02:45:19.432Z,8.68
2018-04-27T02:46:19.476Z,8.68
2018-04-27T02:47:19.523Z,8.65
2018-04-27T02:48:19.602Z,8.66
2018-04-27T02:49:19.614Z,8.55
2018-04-27T02:50:19.661Z,8.60
2018-04-27T02:51:19.706Z,8.58
2018-04-27T02:52:19.753Z,8.60
2018-04-27T02:53:19.824Z,8.54
2018-04-27T02:54:19.847Z,8.47
2018-04-27T02:55:19.895Z,8.54
2018-04-27T02:56:19.960Z,8.50
2018-04-27T02:57:19.984Z,8.53
2018-04-27T02:58:20.027Z,8.44
2018-04-27T02:59:20.102Z,8.47
2018-04-27T03:00:20.120Z,8.45
2018-04-27T03:01:20.191Z,8.40
2018-04-27T03:02:20.213Z,8.45
2018-04-27T03:03:20.263Z,8.42
2018-04-27T03:04:20.307Z,8.40
2018-04-27T03:05:20.351Z,8.42
2018-04-27T03:06:20.435Z,8.44
2018-04-27T03:07:20.444Z,8.45
2018-04-27T03:08:20.494Z,8.39
2018-04-27T03:09:20.534Z,8.45
2018-04-27T03:10:20.579Z,8.40
2018-04-27T03:11:20.651Z,8.47
2018-04-27T03:12:20.671Z,8.37
2018-04-27T03:13:20.716Z,8.42
2018-04-27T03:14:20.763Z,8.32
2018-04-27T03:15:20.807Z,8.36
2018-04-27T03:16:20.894Z,8.33
2018-04-27T03:17:20.899Z,8.33
2018-04-27T03:18:20.946Z,8.33
2018-04-27T03:19:20.998Z,8.33
2018-04-27T03:20:21.037Z,8.32
2018-04-27T03:21:21.114Z,8.30
2018-04-27T03:22:21.127Z,8.28
2018-04-27T03:23:21.174Z,8.32
2018-04-27T03:24:21.219Z,8.32
2018-04-27T03:25:21.269Z,8.29
2018-04-27T03:26:21.334Z,8.33
2018-04-27T03:27:21.383Z,8.33
2018-04-27T03:28:21.404Z,8.28
2018-04-27T03:29:21.450Z,8.29
2018-04-27T03:30:21.495Z,8.26
2018-04-27T03:31:21.540Z,8.20
2018-04-27T03:32:21.612Z,8.21
2018-04-27T03:33:21.631Z,8.21
2018-04-27T03:34:21.738Z,8.12
2018-04-27T03:35:21.723Z,8.10
2018-04-27T03:36:21.770Z,8.14
2018-04-27T03:37:21.837Z,8.17
2018-04-27T03:38:21.860Z,8.20
2018-04-27T03:39:21.905Z,8.21
2018-04-27T03:40:21.954Z,8.17
2018-04-27T03:41:21.995Z,8.15
2018-04-27T03:42:22.065Z,8.18
2018-04-27T03:43:22.089Z,8.04
2018-04-27T03:44:22.140Z,8.04
2018-04-27T03:45:22.248Z,8.08
2018-04-27T03:46:22.225Z,7.97
2018-04-27T03:47:22.305Z,8.02
2018-04-27T03:48:22.315Z,7.94
2018-04-27T03:49:22.367Z,7.90
2018-04-27T03:50:22.408Z,7.97
2018-04-27T03:51:22.453Z,7.99
2018-04-27T03:52:22.523Z,7.87
2018-04-27T03:53:22.568Z,7.87
2018-04-27T03:54:22.592Z,7.78
2018-04-27T03:55:22.635Z,7.82
2018-04-27T03:56:22.680Z,7.75
2018-04-27T03:57:22.728Z,7.78
2018-04-27T03:58:22.795Z,7.63
2018-04-27T03:59:22.821Z,7.77
2018-04-27T04:00:22.864Z,7.62
2018-04-27T04:01:22.907Z,7.69
2018-04-27T04:02:22.954Z,7.56
2018-04-27T04:03:23.026Z,7.63
2018-04-27T04:04:23.069Z,7.62
2018-04-27T04:05:23.091Z,7.66
2018-04-27T04:06:23.138Z,7.58
2018-04-27T04:07:23.180Z,7.45
2018-04-27T04:08:23.228Z,7.47
2018-04-27T04:09:24.256Z,7.50
2018-04-27T04:10:23.316Z,7.49
2018-04-27T04:11:23.364Z,7.47
2018-04-27T04:12:23.408Z,7.49
2018-04-27T04:13:23.458Z,7.55
2018-04-27T04:14:23.521Z,7.49
2018-04-27T04:15:23.542Z,7.50
2018-04-27T04:16:23.589Z,7.47
2018-04-27T04:17:23.642Z,7.50
2018-04-27T04:18:23.678Z,7.50
2018-04-27T04:19:23.756Z,7.56
2018-04-27T04:20:23.772Z,7.44
2018-04-27T04:21:23.821Z,7.47
2018-04-27T04:22:23.860Z,7.49
2018-04-27T04:23:23.904Z,7.50
2018-04-27T04:24:23.981Z,7.47
2018-04-27T04:25:23.995Z,7.56
2018-04-27T04:26:24.042Z,7.63
2018-04-27T04:27:24.085Z,7.66
2018-04-27T04:28:24.131Z,7.69
2018-04-27T04:29:24.201Z,7.74
2018-04-27T04:30:24.249Z,7.78
2018-04-27T04:31:24.266Z,7.74
2018-04-27T04:32:24.383Z,7.62
2018-04-27T04:33:24.357Z,7.59
2018-04-27T04:34:24.401Z,7.59
2018-04-27T04:35:24.478Z,7.56
2018-04-27T04:36:24.494Z,7.56
2018-04-27T04:37:24.547Z,7.60
2018-04-27T04:38:24.617Z,7.60
2018-04-27T04:39:24.628Z,7.55
2018-04-27T04:40:24.701Z,7.58
2018-04-27T04:41:24.741Z,7.60
2018-04-27T04:42:24.763Z,7.63
2018-04-27T04:43:24.810Z,7.67
2018-04-27T04:44:24.859Z,7.63
2018-04-27T04:45:24.929Z,7.69
2018-04-27T04:46:24.946Z,7.74
2018-04-27T04:47:24.990Z,7.78
2018-04-27T04:48:25.043Z,7.72
2018-04-27T04:49:25.080Z,7.77
2018-04-27T04:50:25.160Z,7.81
2018-04-27T04:51:25.173Z,7.77
2018-04-27T04:52:25.238Z,7.81
2018-04-27T04:53:25.259Z,7.82
2018-04-27T04:54:25.305Z,7.79
2018-04-27T04:55:25.374Z,7.72
2018-04-27T04:56:25.428Z,7.85
2018-04-27T04:57:25.439Z,7.75
2018-04-27T04:58:25.491Z,7.78
2018-04-27T04:59:25.531Z,7.81
2018-04-27T05:00:25.578Z,7.81
2018-04-27T05:01:26.461Z,7.84
2018-04-27T05:02:25.674Z,7.75
2018-04-27T05:03:25.714Z,7.75
2018-04-27T05:04:25.759Z,7.72
2018-04-27T05:05:25.802Z,7.75
2018-04-27T05:06:25.876Z,7.79
2018-04-27T05:07:25.892Z,7.79
2018-04-27T05:08:25.940Z,7.84
2018-04-27T05:09:25.987Z,7.85
2018-04-27T05:10:26.028Z,7.89
2018-04-27T05:11:26.097Z,7.90
2018-04-27T05:12:26.123Z,7.97
2018-04-27T05:13:26.164Z,7.93
2018-04-27T05:14:26.217Z,8.04
2018-04-27T05:15:26.256Z,8.03
2018-04-27T05:16:26.332Z,8.10
2018-04-27T05:17:26.372Z,8.17
2018-04-27T05:18:26.391Z,8.20
2018-04-27T05:19:26.443Z,8.14
2018-04-27T05:20:26.485Z,8.10
2018-04-27T05:21:26.528Z,8.25
2018-04-27T05:22:26.595Z,8.25
2018-04-27T05:23:26.618Z,8.32
2018-04-27T05:24:26.673Z,8.42
2018-04-27T05:25:26.711Z,8.40
2018-04-27T05:26:26.753Z,8.53
2018-04-27T05:27:26.829Z,8.51
2018-04-27T05:28:26.846Z,8.55
2018-04-27T05:29:26.890Z,8.63
2018-04-27T05:30:26.935Z,8.62
2018-04-27T05:31:26.986Z,8.65
2018-04-27T05:32:27.052Z,8.65
2018-04-27T05:33:27.071Z,8.63
2018-04-27T05:34:27.118Z,8.65
2018-04-27T05:35:27.167Z,8.78
2018-04-27T05:36:27.211Z,8.84
2018-04-27T05:37:27.377Z,8.86
2018-04-27T05:38:27.301Z,8.87
2018-04-27T05:39:27.371Z,8.86
2018-04-27T05:40:27.391Z,8.96
2018-04-27T05:41:27.436Z,8.88
2018-04-27T05:42:27.523Z,8.94
2018-04-27T05:43:27.528Z,8.97
2018-04-27T05:44:27.573Z,8.96
2018-04-27T05:45:27.618Z,9.02
2018-04-27T05:46:27.665Z,9.06
2018-04-27T05:47:27.743Z,9.10
2018-04-27T05:48:27.762Z,9.20
2018-04-27T05:49:27.801Z,9.13
2018-04-27T05:50:27.849Z,9.15
2018-04-27T05:51:27.897Z,9.23
2018-04-27T05:52:27.963Z,9.23
2018-04-27T05:53:27.988Z,9.31
2018-04-27T05:54:28.034Z,9.34
2018-04-27T05:57:04.705Z,9.39
2018-04-27T05:58:04.739Z,9.38
2018-04-27T05:59:04.780Z,9.42
2018-04-27T06:00:04.831Z,9.49
2018-04-27T06:01:04.877Z,9.48
2018-04-27T06:02:04.943Z,9.53
2018-04-27T06:03:04.966Z,9.63
2018-04-27T06:04:05.038Z,9.63
2018-04-27T06:05:05.069Z,9.68
2018-04-27T06:06:05.106Z,9.73
2018-04-27T06:07:05.157Z,9.78
2018-04-27T06:08:05.197Z,9.85
2018-04-27T06:09:05.274Z,9.82
2018-04-27T06:10:05.297Z,9.85
2018-04-27T06:11:05.335Z,9.96
2018-04-27T06:12:05.387Z,10.03
2018-04-27T06:13:05.428Z,9.94
2018-04-27T06:14:05.503Z,10.01
2018-04-27T06:15:05.521Z,10.07
2018-04-27T06:16:05.574Z,10.21
2018-04-27T06:17:05.616Z,10.18
2018-04-27T06:18:05.670Z,10.25
2018-04-27T06:19:05.732Z,10.33
2018-04-27T06:20:05.755Z,10.34
2018-04-27T06:21:05.799Z,10.42
2018-04-27T06:22:05.849Z,10.47
2018-04-27T06:23:05.895Z,10.52
2018-04-27T06:24:05.983Z,10.65
2018-04-27T06:25:05.988Z,10.58
2018-04-27T06:26:06.032Z,10.60
2018-04-27T06:27:06.079Z,10.70
2018-04-27T06:28:06.126Z,10.83
2018-04-27T06:29:06.203Z,10.76
2018-04-27T06:30:06.224Z,10.94
2018-04-27T06:31:06.277Z,10.95
2018-04-27T06:32:06.320Z,11.02
2018-04-27T06:33:06.365Z,11.09
2018-04-27T06:34:06.437Z,11.17
2018-04-27T06:35:06.484Z,11.24
2018-04-27T06:36:06.504Z,11.16
2018-04-27T06:37:06.551Z,11.10
2018-04-27T06:38:06.597Z,11.20
2018-04-27T06:39:06.644Z,11.27
2018-04-27T06:40:06.715Z,11.31
2018-04-27T06:41:06.739Z,11.44
2018-04-27T06:42:06.785Z,11.75
2018-04-27T06:43:06.833Z,12.15
2018-04-27T06:44:06.880Z,12.84
2018-04-27T06:45:06.955Z,13.81
2018-04-27T06:46:06.998Z,14.31
2018-04-27T06:47:07.026Z,14.50
2018-04-27T06:48:07.071Z,14.99
2018-04-27T06:49:07.118Z,15.41
2018-04-27T06:50:07.168Z,15.79
2018-04-27T06:51:07.237Z,16.25
2018-04-27T06:52:07.263Z,16.55
2018-04-27T06:53:07.316Z,17.13
2018-04-27T06:54:07.358Z,17.88
2018-04-27T06:55:07.408Z,18.28
2018-04-27T06:56:07.480Z,18.62
2018-04-27T06:57:07.507Z,18.91
2018-04-27T06:58:07.554Z,19.35
2018-04-27T06:59:07.613Z,19.60
2018-04-27T07:00:07.652Z,19.61
2018-04-27T07:01:07.745Z,19.39
2018-04-27T07:02:07.750Z,19.18
2018-04-27T07:03:07.797Z,19.39
2018-04-27T07:04:07.850Z,19.63
2018-04-27T07:05:07.938Z,19.88
2018-04-27T07:06:07.977Z,20.06
2018-04-27T07:07:08.001Z,20.24
2018-04-27T07:08:08.052Z,20.38
2018-04-27T07:09:08.097Z,20.08
2018-04-27T07:10:08.147Z,20.27
2018-04-27T07:11:08.232Z,20.18
2018-04-27T07:12:08.246Z,19.83
2018-04-27T07:13:08.299Z,19.29
2018-04-27T07:14:08.348Z,19.61
2018-04-27T07:15:08.402Z,19.58
2018-04-27T07:16:08.485Z,19.91
2018-04-27T07:17:08.549Z,20.06
2018-04-27T07:18:08.547Z,19.97
2018-04-27T07:19:08.598Z,20.42
2018-04-27T07:20:08.651Z,20.76
2018-04-27T07:21:08.729Z,20.90
2018-04-27T07:22:08.753Z,20.69
2018-04-27T07:23:08.802Z,20.54
2018-04-27T07:24:08.854Z,20.18
2018-04-27T07:25:08.903Z,19.97
2018-04-27T07:26:08.989Z,20.23
2018-04-27T07:27:09.004Z,20.25
2018-04-27T07:28:09.059Z,20.13
2018-04-27T07:29:09.869Z,19.70
2018-04-27T07:30:09.159Z,18.29
2018-04-27T07:31:09.230Z,18.29
2018-04-27T07:32:09.259Z,17.70
2018-04-27T07:33:09.310Z,16.27
2018-04-27T07:34:09.400Z,15.88
2018-04-27T07:35:09.412Z,15.96
2018-04-27T07:36:09.463Z,16.04
2018-04-27T07:37:09.539Z,15.45
2018-04-27T07:38:09.565Z,14.94
2018-04-27T07:39:09.617Z,14.87
2018-04-27T07:40:09.665Z,15.02
2018-04-27T07:41:09.719Z,15.02
2018-04-27T07:42:09.796Z,15.09
2018-04-27T07:43:09.818Z,15.02
2018-04-27T07:44:09.868Z,15.15
2018-04-27T07:45:09.977Z,15.01
2018-04-27T07:46:09.965Z,15.76
2018-04-27T07:47:10.065Z,16.22
2018-04-27T07:48:10.068Z,16.18
2018-04-27T07:49:10.117Z,16.50
2018-04-27T07:50:10.165Z,16.68
2018-04-27T07:51:10.216Z,16.78
2018-04-27T07:52:10.291Z,16.62
2018-04-27T07:53:10.315Z,16.74
2018-04-27T07:54:10.366Z,17.20
2018-04-27T07:55:10.438Z,16.81
2018-04-27T07:56:10.465Z,16.42
2018-04-27T07:57:10.519Z,16.90
2018-04-27T07:58:10.590Z,17.33
2018-04-27T07:59:10.616Z,17.85
2018-04-27T08:00:10.668Z,17.91
2018-04-27T08:01:10.741Z,17.95
2018-04-27T08:02:10.835Z,17.91
2018-04-27T08:03:10.824Z,18.25
2018-04-27T08:04:10.870Z,17.73
2018-04-27T08:05:10.917Z,17.15
2018-04-27T08:06:11.004Z,17.28
2018-04-27T08:07:11.101Z,16.89
2018-04-27T08:08:11.066Z,17.08
2018-04-27T08:09:11.117Z,16.38
2018-04-27T08:10:11.171Z,16.35
2018-04-27T08:11:11.245Z,15.88
2018-04-27T08:12:11.268Z,15.78
2018-04-27T08:13:11.320Z,16.11
2018-04-27T08:14:11.366Z,16.92
2018-04-27T08:15:11.420Z,17.63
2018-04-27T08:16:11.506Z,17.59
2018-04-27T08:17:11.518Z,17.18
2018-04-27T08:18:11.569Z,16.89
2018-04-27T08:19:11.617Z,17.64
2018-04-27T08:20:11.667Z,18.22
2018-04-27T08:21:11.742Z,18.84
2018-04-27T08:22:11.767Z,19.21
2018-04-27T08:23:11.819Z,19.57
2018-04-27T08:24:11.877Z,19.35
2018-04-27T08:25:11.957Z,18.36
2018-04-27T08:26:11.969Z,17.91
2018-04-27T08:27:12.024Z,17.25
2018-04-27T08:28:12.074Z,17.33
2018-04-27T08:29:12.122Z,17.88
2018-04-27T08:30:12.204Z,18.29
2018-04-27T08:31:12.228Z,17.71
2018-04-27T08:32:12.298Z,17.28
2018-04-27T08:33:12.324Z,16.83
2018-04-27T08:34:12.375Z,16.60
2018-04-27T08:35:12.465Z,16.41
2018-04-27T08:36:12.493Z,16.16
2018-04-27T08:37:12.551Z,16.59
2018-04-27T08:38:12.578Z,17.14
2018-04-27T08:39:12.631Z,17.30
2018-04-27T08:40:12.683Z,17.59
2018-04-27T08:41:12.731Z,17.76
2018-04-27T08:42:12.806Z,18.07
2018-04-27T08:43:12.835Z,17.57
2018-04-27T08:44:12.887Z,17.88
2018-04-27T08:45:12.935Z,17.85
2018-04-27T08:46:12.988Z,17.85
2018-04-27T08:47:13.059Z,18.21
2018-04-27T08:48:13.091Z,18.00
2018-04-27T08:49:13.141Z,17.06
2018-04-27T08:50:13.197Z,16.63
2018-04-27T08:51:13.241Z,17.08
2018-04-27T08:52:13.334Z,16.95
2018-04-27T08:53:13.344Z,17.44
2018-04-27T08:54:13.395Z,18.02
2018-04-27T08:55:13.444Z,18.00
2018-04-27T08:56:13.504Z,17.59
2018-04-27T08:57:13.579Z,17.38
2018-04-27T08:58:13.599Z,17.88
2018-04-27T08:59:13.649Z,18.03
2018-04-27T09:00:13.702Z,17.54
2018-04-27T09:01:13.751Z,16.78
2018-04-27T09:02:13.831Z,16.90
2018-04-27T09:03:13.853Z,16.83
2018-04-27T09:04:13.904Z,16.70
2018-04-27T09:05:13.955Z,16.60
2018-04-27T09:06:14.010Z,16.78
2018-04-27T09:07:14.083Z,16.68
2018-04-27T09:08:14.111Z,16.62
2018-04-27T09:09:14.188Z,16.73
2018-04-27T09:10:14.212Z,16.74
2018-04-27T09:11:14.263Z,16.90
2018-04-27T09:12:14.316Z,17.22
2018-04-27T09:13:14.366Z,18.03
2018-04-27T09:14:14.439Z,18.70
2018-04-27T09:15:14.467Z,18.19
2018-04-27T09:16:14.575Z,18.57
2018-04-27T09:17:14.576Z,18.64
2018-04-27T09:18:14.625Z,17.87
2018-04-27T09:19:14.697Z,17.63
2018-04-27T09:20:14.723Z,17.18
2018-04-27T09:21:14.777Z,17.00
2018-04-27T09:22:14.828Z,16.95
2018-04-27T09:23:14.879Z,16.96
2018-04-27T09:24:14.952Z,16.88
2018-04-27T09:25:15.007Z,16.92
2018-04-27T09:26:15.030Z,17.55
2018-04-27T09:27:15.082Z,18.34
2018-04-27T09:28:15.137Z,17.92
2018-04-27T09:29:15.188Z,18.24
2018-04-27T09:30:15.266Z,17.89
2018-04-27T09:31:15.286Z,17.59
2018-04-27T09:32:15.365Z,17.67
2018-04-27T09:33:15.395Z,17.70
2018-04-27T09:34:15.440Z,17.66
2018-04-27T09:35:15.517Z,17.47
2018-04-27T09:36:15.548Z,17.28
2018-04-27T09:37:15.599Z,17.43
2018-04-27T09:38:15.648Z,17.54
2018-04-27T09:39:15.699Z,17.47
2018-04-27T09:40:15.793Z,17.53
2018-04-27T09:41:15.805Z,17.50
2018-04-27T09:42:15.860Z,17.66
2018-04-27T09:43:15.903Z,17.82
2018-04-27T09:44:15.959Z,17.85
2018-04-27T09:45:16.030Z,17.97
2018-04-27T09:46:16.123Z,18.22
2018-04-27T09:47:16.108Z,18.07
2018-04-27T09:48:16.160Z,17.88
2018-04-27T09:49:16.215Z,17.47
2018-04-27T09:50:16.263Z,16.98
2018-04-27T09:51:16.340Z,17.36
2018-04-27T09:52:16.370Z,17.66
2018-04-27T09:53:16.417Z,18.03
2018-04-27T09:54:16.469Z,18.43
2018-04-27T09:55:16.520Z,19.10
2018-04-27T09:56:16.597Z,19.55
2018-04-27T09:57:16.624Z,19.24
2018-04-27T09:58:16.678Z,19.23
2018-04-27T09:59:16.729Z,18.97
2018-04-27T10:00:16.777Z,18.80
2018-04-27T10:01:16.853Z,17.99
2018-04-27T10:02:16.880Z,17.95
2018-04-27T10:03:16.936Z,17.73
2018-04-27T10:04:16.987Z,17.85
2018-04-27T10:05:17.038Z,18.44
2018-04-27T10:06:17.121Z,18.25
2018-04-27T10:07:17.140Z,18.10
2018-04-27T10:08:17.192Z,18.04
2018-04-27T10:09:17.245Z,17.35
2018-04-27T10:10:17.298Z,17.04
2018-04-27T10:11:17.388Z,16.55
2018-04-27T10:12:17.403Z,16.77
2018-04-27T10:13:17.452Z,16.93
2018-04-27T10:14:17.513Z,17.29
2018-04-27T10:15:17.555Z,17.30
2018-04-27T10:16:17.642Z,17.40
2018-04-27T10:17:17.659Z,17.64
2018-04-27T10:18:17.709Z,17.59
2018-04-27T10:19:17.762Z,17.73
2018-04-27T10:20:17.816Z,17.82
2018-04-27T10:21:17.891Z,17.67
2018-04-27T10:22:17.942Z,17.44
2018-04-27T10:23:17.977Z,17.40
2018-04-27T10:24:18.021Z,17.35
2018-04-27T10:25:18.073Z,17.26
2018-04-27T10:26:18.127Z,17.14
2018-04-27T10:27:18.216Z,17.06
2018-04-27T10:28:18.232Z,17.30
2018-04-27T10:29:18.279Z,17.66
2018-04-27T10:30:18.333Z,17.87
2018-04-27T10:31:18.387Z,17.78
2018-04-27T10:32:18.460Z,18.00
2018-04-27T10:33:18.509Z,17.76
2018-04-27T10:34:18.535Z,17.54
2018-04-27T10:35:18.593Z,17.62
2018-04-27T10:36:18.649Z,17.71
2018-04-27T10:37:18.689Z,18.18
2018-04-27T10:38:18.782Z,18.33
2018-04-27T10:39:18.800Z,18.22
2018-04-27T10:40:18.844Z,18.03
2018-04-27T10:41:18.902Z,18.02
2018-04-27T10:42:18.948Z,17.70
2018-04-27T10:43:19.030Z,17.62
2018-04-27T10:44:19.057Z,17.26
2018-04-27T10:45:19.102Z,17.50
2018-04-27T10:46:19.153Z,17.50
2018-04-27T10:47:19.204Z,18.22
2018-04-27T10:48:19.291Z,18.70
2018-04-27T10:49:19.308Z,18.83
2018-04-27T10:50:19.423Z,18.98
2018-04-27T10:51:19.416Z,19.15
2018-04-27T10:52:19.464Z,18.82
2018-04-27T10:53:19.562Z,18.43
2018-04-27T10:54:19.566Z,18.12
2018-04-27T10:55:19.625Z,17.92
2018-04-27T10:56:19.671Z,18.00
2018-04-27T10:57:19.723Z,18.07
2018-04-27T10:58:19.802Z,18.76
2018-04-27T10:59:19.826Z,18.33
2018-04-27T11:00:19.906Z,17.85
2018-04-27T11:01:19.935Z,17.64
2018-04-27T11:02:19.984Z,17.85
2018-04-27T11:03:20.056Z,17.59
2018-04-27T11:04:20.088Z,17.85
2018-04-27T11:05:20.170Z,18.39
2018-04-27T11:06:20.192Z,18.03
2018-04-27T11:07:20.248Z,18.47
2018-04-27T11:08:20.296Z,18.82
2018-04-27T11:09:20.350Z,19.05
2018-04-27T11:10:20.433Z,18.90
2018-04-27T11:11:20.454Z,18.22
2018-04-27T11:12:20.505Z,18.49
2018-04-27T11:13:20.563Z,18.15
2018-04-27T11:14:20.623Z,17.76
2018-04-27T11:15:20.685Z,17.35
2018-04-27T11:16:20.717Z,17.40
2018-04-27T11:17:20.767Z,17.54
2018-04-27T11:18:20.828Z,17.69
2018-04-27T11:19:20.875Z,17.85
2018-04-27T11:20:20.957Z,17.91
2018-04-27T11:21:20.982Z,18.13
2018-04-27T11:22:21.034Z,18.73
2018-04-27T11:23:21.081Z,19.13
2018-04-27T11:24:21.135Z,19.21
2018-04-27T11:25:21.216Z,19.15
2018-04-27T11:26:21.263Z,18.52
2018-04-27T11:27:21.290Z,18.00
2018-04-27T11:28:21.359Z,17.70
2018-04-27T11:29:21.396Z,17.71
2018-04-27T11:30:21.448Z,17.92
2018-04-27T11:31:21.546Z,17.66
2018-04-27T11:32:21.557Z,17.84
2018-04-27T11:33:21.614Z,17.57
2018-04-27T11:34:21.661Z,17.50
2018-04-27T11:35:21.711Z,17.94
2018-04-27T11:36:21.791Z,18.47
2018-04-27T11:37:21.818Z,18.61
2018-04-27T11:38:21.893Z,18.92
2018-04-27T11:39:21.932Z,19.60
2018-04-27T11:40:21.976Z,20.16
2018-04-27T11:41:22.079Z,20.51
2018-04-27T11:42:22.081Z,20.06
2018-04-27T11:43:22.156Z,19.61
2018-04-27T11:44:22.185Z,19.76
2018-04-27T11:45:22.242Z,19.90
2018-04-27T11:46:22.292Z,20.24
2018-04-27T11:47:22.356Z,20.47
2018-04-27T11:48:22.421Z,20.72
2018-04-27T11:49:22.467Z,20.96
2018-04-27T11:50:22.512Z,21.34
2018-04-27T11:51:22.558Z,21.60
2018-04-27T11:52:22.614Z,22.04
2018-04-27T11:53:22.772Z,22.60
2018-04-27T11:54:22.720Z,22.84
2018-04-27T11:55:22.775Z,22.28
2018-04-27T11:56:22.829Z,21.97
2018-04-27T11:57:22.892Z,21.26
2018-04-27T11:58:22.968Z,21.08
2018-04-27T11:59:22.995Z,20.81
2018-04-27T12:00:23.052Z,20.42
2018-04-27T12:01:23.101Z,20.34
2018-04-27T12:02:23.156Z,20.05
2018-04-27T12:03:23.239Z,20.09
2018-04-27T12:04:23.268Z,20.24
2018-04-27T12:05:23.376Z,20.18
2018-04-27T12:06:23.380Z,20.35
2018-04-27T12:07:23.432Z,20.77
2018-04-27T12:08:23.494Z,21.32
2018-04-27T12:09:23.566Z,21.82
2018-04-27T12:10:23.623Z,22.16
2018-04-27T12:11:23.650Z,22.49
2018-04-27T12:12:23.708Z,22.74
2018-04-27T12:13:23.762Z,22.78
2018-04-27T12:14:23.842Z,22.69
2018-04-27T12:15:23.896Z,22.53
2018-04-27T12:16:23.932Z,22.77
2018-04-27T12:17:23.985Z,23.11
2018-04-27T12:18:24.040Z,23.24
2018-04-27T12:19:24.122Z,23.50
2018-04-27T12:20:24.183Z,23.76
2018-04-27T12:21:24.212Z,24.10
2018-04-27T12:22:24.263Z,24.19
2018-04-27T12:23:24.321Z,24.32
2018-04-27T12:24:24.385Z,24.19
2018-04-27T12:25:24.466Z,24.32
2018-04-27T12:26:24.492Z,24.41
2018-04-27T12:27:24.552Z,24.32
2018-04-27T12:28:24.609Z,24.38
2018-04-27T12:29:24.665Z,24.49
2018-04-27T12:30:24.762Z,24.49
2018-04-27T12:31:24.975Z,24.63
2018-04-27T12:32:24.838Z,24.67
2018-04-27T12:33:24.901Z,24.64
2018-04-27T12:34:24.957Z,24.47
2018-04-27T12:35:25.050Z,24.44
2018-04-27T12:36:25.077Z,24.44
2018-04-27T12:37:25.133Z,24.13
2018-04-27T12:38:25.197Z,24.14
2018-04-27T12:39:25.252Z,24.24
2018-04-27T12:40:25.335Z,24.26
2018-04-27T12:41:25.391Z,24.38
2018-04-27T12:42:25.425Z,24.37
2018-04-27T12:43:25.484Z,24.49
2018-04-27T12:44:25.546Z,24.52
2018-04-27T12:45:25.604Z,24.49
2018-04-27T12:46:25.685Z,24.47
2018-04-27T12:47:25.731Z,24.50
2018-04-27T12:48:25.781Z,24.73
2018-04-27T12:49:25.841Z,24.73
2018-04-27T12:50:25.905Z,24.59
2018-04-27T12:51:25.990Z,24.52
2018-04-27T12:52:26.681Z,24.27
2018-04-27T12:53:26.088Z,24.19
2018-04-27T12:54:26.148Z,24.12
2018-04-27T12:55:26.199Z,24.26
2018-04-27T12:56:26.263Z,24.26
2018-04-27T12:57:26.348Z,24.35
2018-04-27T12:58:26.380Z,24.31
2018-04-27T12:59:26.438Z,24.32
2018-04-27T13:00:26.501Z,24.29
2018-04-27T13:01:26.564Z,24.23
2018-04-27T13:02:26.670Z,24.31
2018-04-27T13:03:26.683Z,24.35
2018-04-27T13:04:26.744Z,24.56
2018-04-27T13:05:26.801Z,24.77
2018-04-27T13:06:27.684Z,25.01